Terminal Aerodrome Forecast
Issued by NWS

Home | Current Version | Previous Version | Text Only | Print | Product List | Glossary On
Versions: 1 2 3 4 5 6 7 8 9 10 11 12 13 14 15 16 17 18 19
000
FTUS41 KILN 010900 AAB
TAFLUK
TAF AMD
KLUK 010945Z 0110/0206 00000KT P6SM FEW018
     FM011000 00000KT 4SM BR SCT011
      TEMPO 0111/0113 1SM BR BKN007
     FM011400 08004KT P6SM SCT250
     FM020000 11003KT P6SM SKC=

USA.gov is the U.S. government's official web portal to all federal, state and local government web resources and services.